createdAt,value
2023-03-11T00:00:33.687Z,99235.00
2023-03-11T00:03:02.239Z,99227.03
2023-03-11T00:05:31.797Z,99240.44
2023-03-11T00:07:58.361Z,99244.69
2023-03-11T00:10:30.893Z,99228.16
2023-03-11T00:12:58.990Z,99249.03
2023-03-11T00:15:26.672Z,99228.22
2023-03-11T00:17:53.093Z,99249.38
2023-03-11T00:20:31.887Z,99246.59
2023-03-11T00:22:58.994Z,99248.91
2023-03-11T00:25:28.741Z,99250.66
2023-03-11T00:27:56.104Z,99263.06
2023-03-11T00:30:24.075Z,99253.31
2023-03-11T00:32:53.038Z,99263.06
2023-03-11T00:35:23.328Z,99268.34
2023-03-11T00:37:54.331Z,99271.63
2023-03-11T00:40:22.031Z,99269.78
2023-03-11T00:42:48.449Z,99273.44
2023-03-11T00:45:19.216Z,99264.84
2023-03-11T00:47:46.095Z,99264.84
2023-03-11T00:50:24.970Z,99282.63
2023-03-11T00:52:52.784Z,99278.34
2023-03-11T00:55:22.743Z,99272.91
2023-03-11T00:57:53.244Z,99282.38
2023-03-11T01:00:21.276Z,99294.63
2023-03-11T01:02:47.676Z,99302.59
2023-03-11T01:05:15.197Z,99296.50
2023-03-11T01:07:41.914Z,99298.84
2023-03-11T01:10:10.103Z,99293.00
2023-03-11T01:12:36.674Z,99284.53
2023-03-11T01:15:04.377Z,99272.25
2023-03-11T01:17:30.790Z,99278.31
2023-03-11T01:19:57.231Z,99273.13
2023-03-11T01:22:23.749Z,99271.31
2023-03-11T01:24:50.102Z,99262.16
2023-03-11T01:27:16.724Z,99271.16
2023-03-11T01:29:43.127Z,99279.06
2023-03-11T01:32:11.234Z,99272.16
2023-03-11T01:34:37.730Z,99279.00
2023-03-11T01:37:04.219Z,99282.31
2023-03-11T01:39:30.794Z,99291.19
2023-03-11T01:41:57.294Z,99294.81
2023-03-11T01:44:23.748Z,99300.00
2023-03-11T01:46:53.035Z,99314.84
2023-03-11T01:49:21.799Z,99321.75
2023-03-11T01:51:51.986Z,99331.41
2023-03-11T01:54:28.384Z,99331.50
2023-03-11T01:56:55.842Z,99336.00
2023-03-11T01:59:36.266Z,99328.91
2023-03-11T02:02:11.330Z,99321.81
2023-03-11T02:04:40.487Z,99324.59
2023-03-11T02:07:08.610Z,99321.94
2023-03-11T02:09:35.082Z,99314.81
2023-03-11T02:12:02.688Z,99319.25
2023-03-11T02:14:30.100Z,99310.50
2023-03-11T02:16:57.975Z,99312.22
2023-03-11T02:19:31.415Z,99309.56
2023-03-11T02:21:58.261Z,99313.91
2023-03-11T02:24:46.460Z,99322.50
2023-03-11T02:27:16.185Z,99309.53
2023-03-11T02:29:44.741Z,99311.41
2023-03-11T02:32:11.444Z,99314.06
2023-03-11T02:34:39.508Z,99310.56
2023-03-11T02:37:15.726Z,99319.31
2023-03-11T02:39:49.294Z,99315.16
2023-03-11T02:42:22.581Z,99318.69
2023-03-11T02:44:58.190Z,99330.22
2023-03-11T02:47:25.751Z,99330.16
2023-03-11T02:49:54.014Z,99334.63
2023-03-11T02:52:20.971Z,99339.09
2023-03-11T02:54:47.328Z,99329.59
2023-03-11T02:57:13.756Z,99333.88
2023-03-11T02:59:40.159Z,99334.63
2023-03-11T03:02:06.599Z,99334.56
2023-03-11T03:04:33.054Z,99335.47
2023-03-11T03:06:59.582Z,99340.75
2023-03-11T03:09:26.198Z,99346.06
2023-03-11T03:11:52.526Z,99353.88
2023-03-11T03:14:18.976Z,99353.84
2023-03-11T03:16:45.547Z,99346.06
2023-03-11T03:19:11.971Z,99355.81
2023-03-11T03:21:38.321Z,99361.84
2023-03-11T03:24:04.816Z,99360.88
2023-03-11T03:26:31.180Z,99360.03
2023-03-11T03:28:57.535Z,99364.31
2023-03-11T03:31:24.175Z,99369.56
2023-03-11T03:33:50.635Z,99370.38
2023-03-11T03:36:17.057Z,99378.25
2023-03-11T03:38:43.547Z,99386.06
2023-03-11T03:41:10.090Z,99378.22
2023-03-11T03:43:36.455Z,99380.88
2023-03-11T03:46:05.205Z,99383.56
2023-03-11T03:48:32.025Z,99380.09
2023-03-11T03:51:04.424Z,99379.88
2023-03-11T03:53:31.339Z,99382.38
2023-03-11T03:55:57.809Z,99386.63
2023-03-11T03:58:24.186Z,99392.41
2023-03-11T04:00:56.140Z,99386.25
2023-03-11T04:03:22.840Z,99393.28
2023-03-11T04:05:49.208Z,99397.72
2023-03-11T04:08:15.628Z,99399.53
2023-03-11T04:10:41.964Z,99403.00
2023-03-11T04:13:08.441Z,99405.56
2023-03-11T04:15:34.835Z,99404.69
2023-03-11T04:18:06.021Z,99406.38
2023-03-11T04:20:32.374Z,99411.78
2023-03-11T04:22:58.787Z,99407.31
2023-03-11T04:25:25.264Z,99402.03
2023-03-11T04:27:52.311Z,99407.25
2023-03-11T04:30:18.809Z,99408.19
2023-03-11T04:32:45.274Z,99403.84
2023-03-11T04:35:11.707Z,99400.22
2023-03-11T04:37:38.060Z,99399.59
2023-03-11T04:40:06.222Z,99407.47
2023-03-11T04:42:32.683Z,99405.72
2023-03-11T04:44:59.048Z,99410.78
2023-03-11T04:47:25.493Z,99404.84
2023-03-11T04:49:51.908Z,99416.25
2023-03-11T04:52:18.292Z,99420.78
2023-03-11T04:54:44.645Z,99416.94
2023-03-11T04:57:10.981Z,99427.44
2023-03-11T04:59:37.430Z,99424.84
2023-03-11T05:02:03.909Z,99431.81
2023-03-11T05:04:30.677Z,99430.91
2023-03-11T05:06:57.192Z,99429.13
2023-03-11T05:09:25.679Z,99428.22
2023-03-11T05:11:52.147Z,99434.88
2023-03-11T05:14:18.641Z,99436.81
2023-03-11T05:16:45.034Z,99439.84
2023-03-11T05:19:46.720Z,99440.84
2023-03-11T05:22:13.384Z,99441.00
2023-03-11T05:24:39.817Z,99441.00
2023-03-11T05:27:06.234Z,99447.03
2023-03-11T05:29:32.723Z,99438.28
2023-03-11T05:31:59.208Z,99446.19
2023-03-11T05:34:25.667Z,99446.97
2023-03-11T05:36:52.051Z,99456.94
2023-03-11T05:39:18.539Z,99457.19
2023-03-11T05:41:44.989Z,99458.84
2023-03-11T05:44:11.408Z,99457.19
2023-03-11T05:46:37.952Z,99454.59
2023-03-11T05:49:04.486Z,99453.59
2023-03-11T05:51:30.926Z,99455.50
2023-03-11T05:53:58.606Z,99465.16
2023-03-11T05:56:25.064Z,99474.84
2023-03-11T05:58:51.541Z,99462.53
2023-03-11T06:01:20.611Z,99468.59
2023-03-11T06:03:47.063Z,99473.97
2023-03-11T06:06:14.133Z,99472.16
2023-03-11T06:08:45.844Z,99468.69
2023-03-11T06:11:12.237Z,99479.94
2023-03-11T06:13:38.806Z,99485.19
2023-03-11T06:16:05.793Z,99485.13
2023-03-11T06:18:32.189Z,99486.97
2023-03-11T06:20:59.367Z,99496.59
2023-03-11T06:23:26.674Z,99495.56
2023-03-11T06:26:05.175Z,99505.16
2023-03-11T06:28:32.193Z,99513.06
2023-03-11T06:31:08.290Z,99520.03
2023-03-11T06:33:34.773Z,99516.50
2023-03-11T06:36:03.703Z,99514.69
2023-03-11T06:38:30.321Z,99527.09
2023-03-11T06:41:05.060Z,99528.88
2023-03-11T06:43:33.063Z,99533.28
2023-03-11T06:46:00.022Z,99541.19
2023-03-11T06:48:26.537Z,99536.75
2023-03-11T06:50:57.631Z,99546.34
2023-03-11T06:53:24.719Z,99546.28
2023-03-11T06:56:01.820Z,99556.69
2023-03-11T06:58:29.176Z,99555.03
2023-03-11T07:00:59.822Z,99571.66
2023-03-11T07:03:26.272Z,99573.56
2023-03-11T07:05:52.661Z,99571.66
2023-03-11T07:08:19.166Z,99571.56
2023-03-11T07:10:45.689Z,99574.00
2023-03-11T07:13:12.563Z,99582.03
2023-03-11T07:15:38.956Z,99580.13
2023-03-11T07:18:05.500Z,99579.16
2023-03-11T07:20:32.013Z,99580.13
2023-03-11T07:22:58.414Z,99585.41
2023-03-11T07:25:24.938Z,99592.34
2023-03-11T07:27:51.364Z,99587.75
2023-03-11T07:30:18.296Z,99601.00
2023-03-11T07:32:44.707Z,99597.41
2023-03-11T07:35:11.265Z,99602.78
2023-03-11T07:37:37.661Z,99602.66
2023-03-11T07:40:04.358Z,99605.34
2023-03-11T07:42:30.706Z,99617.50
2023-03-11T07:44:57.120Z,99619.09
2023-03-11T07:47:24.656Z,99626.16
2023-03-11T07:49:50.988Z,99632.25
2023-03-11T07:52:17.520Z,99630.50
2023-03-11T07:54:45.147Z,99637.25
2023-03-11T07:57:16.943Z,99646.56
2023-03-11T07:59:43.503Z,99643.94
2023-03-11T08:02:10.678Z,99651.13
2023-03-11T08:04:37.060Z,99656.22
2023-03-11T08:07:03.949Z,99651.72
2023-03-11T08:09:30.376Z,99648.06
2023-03-11T08:11:57.016Z,99648.94
2023-03-11T08:14:23.349Z,99662.13
2023-03-11T08:16:49.732Z,99662.25
2023-03-11T08:19:16.114Z,99662.84
2023-03-11T08:21:42.549Z,99669.75
2023-03-11T08:24:11.747Z,99671.44
2023-03-11T08:26:38.699Z,99672.84
2023-03-11T08:29:05.126Z,99671.81
2023-03-11T08:31:33.707Z,99680.28
2023-03-11T08:34:03.226Z,99684.06
2023-03-11T08:36:30.158Z,99680.66
2023-03-11T08:38:56.730Z,99693.06
2023-03-11T08:41:23.764Z,99691.22
2023-03-11T08:43:52.129Z,99691.28
2023-03-11T08:46:29.294Z,99689.50
2023-03-11T08:49:01.072Z,99698.81
2023-03-11T08:51:30.371Z,99691.22
2023-03-11T08:53:57.210Z,99700.75
2023-03-11T08:56:23.860Z,99692.97
2023-03-11T08:58:50.859Z,99672.00
2023-03-11T09:01:17.914Z,99690.59
2023-03-11T09:03:44.364Z,99687.91
2023-03-11T09:06:15.449Z,99682.84
2023-03-11T09:08:43.368Z,99692.59
2023-03-11T09:11:10.031Z,99695.00
2023-03-11T09:13:36.430Z,99698.38
2023-03-11T09:16:05.798Z,99708.38
2023-03-11T09:18:32.298Z,99703.66
2023-03-11T09:21:00.527Z,99700.94
2023-03-11T09:23:26.947Z,99701.78
2023-03-11T09:25:53.422Z,99696.13
2023-03-11T09:28:19.835Z,99702.00
2023-03-11T09:30:46.239Z,99701.75
2023-03-11T09:33:12.605Z,99701.91
2023-03-11T09:35:39.691Z,99693.09
2023-03-11T09:38:06.162Z,99695.81
2023-03-11T09:40:56.584Z,99689.03
2023-03-11T09:43:42.785Z,99701.56
2023-03-11T09:46:24.294Z,99698.53
2023-03-11T09:49:00.518Z,99704.63
2023-03-11T09:51:36.066Z,99699.38
2023-03-11T09:54:10.976Z,99700.41
2023-03-11T09:56:38.527Z,99709.97
2023-03-11T09:59:09.320Z,99704.06
2023-03-11T10:01:43.176Z,99704.19
2023-03-11T10:04:18.188Z,99708.09
2023-03-11T10:06:46.976Z,99714.84
2023-03-11T10:09:22.576Z,99713.75
2023-03-11T10:12:13.984Z,99714.50
2023-03-11T10:15:05.905Z,99713.56
2023-03-11T10:17:40.144Z,99721.16
2023-03-11T10:20:19.875Z,99724.97
2023-03-11T10:23:25.623Z,99726.78
2023-03-11T10:25:58.397Z,99736.34
2023-03-11T10:28:33.203Z,99737.06
2023-03-11T10:31:20.241Z,99734.84
2023-03-11T10:33:52.430Z,99731.44
2023-03-11T10:36:35.312Z,99726.22
2023-03-11T10:39:03.327Z,99730.38
2023-03-11T10:41:47.295Z,99720.72
2023-03-11T10:44:23.894Z,99728.06
2023-03-11T10:46:50.263Z,99725.63
2023-03-11T10:49:18.356Z,99729.94
2023-03-11T10:51:52.988Z,99729.97
2023-03-11T10:54:38.410Z,99730.00
2023-03-11T10:57:21.535Z,99736.31
2023-03-11T10:59:50.728Z,99749.69
2023-03-11T11:02:37.531Z,99752.16
2023-03-11T11:05:20.008Z,99752.03
2023-03-11T11:07:53.167Z,99746.44
2023-03-11T11:10:26.766Z,99752.47
2023-03-11T11:12:56.523Z,99751.34
2023-03-11T11:15:32.755Z,99751.69
2023-03-11T11:18:02.355Z,99748.41
2023-03-11T11:20:30.913Z,99748.56
2023-03-11T11:23:03.488Z,99757.09
2023-03-11T11:25:34.930Z,99760.28
2023-03-11T11:28:22.912Z,99749.94
2023-03-11T11:30:55.199Z,99752.03
2023-03-11T11:33:30.936Z,99746.16
2023-03-11T11:36:01.400Z,99747.06
2023-03-11T11:38:29.557Z,99749.13
2023-03-11T11:40:59.678Z,99742.16
2023-03-11T11:43:41.196Z,99743.13
2023-03-11T11:46:18.940Z,99737.22
2023-03-11T11:48:48.425Z,99733.94
2023-03-11T11:51:28.601Z,99744.22
2023-03-11T11:54:23.918Z,99736.19
2023-03-11T11:56:50.483Z,99734.34
2023-03-11T11:59:19.752Z,99735.09
2023-03-11T12:01:58.066Z,99739.53
2023-03-11T12:04:41.144Z,99736.88
2023-03-11T12:07:24.978Z,99730.91
2023-03-11T12:10:22.863Z,99730.31
2023-03-11T12:13:11.940Z,99728.34
2023-03-11T12:15:44.352Z,99729.34
2023-03-11T12:18:24.444Z,99715.25
2023-03-11T12:20:56.112Z,99715.44
2023-03-11T12:23:35.728Z,99721.56
2023-03-11T12:26:10.068Z,99723.91
2023-03-11T12:28:42.841Z,99721.84
2023-03-11T12:31:11.773Z,99725.44
2023-03-11T12:33:45.718Z,99724.03
2023-03-11T12:36:29.197Z,99730.06
2023-03-11T12:38:56.029Z,99729.22
2023-03-11T12:41:41.906Z,99731.53
2023-03-11T12:44:17.558Z,99732.81
2023-03-11T12:47:03.304Z,99738.75
2023-03-11T12:49:33.856Z,99745.50
2023-03-11T12:52:18.878Z,99746.06
2023-03-11T12:54:47.677Z,99743.59
2023-03-11T12:57:17.019Z,99751.09
2023-03-11T13:00:22.925Z,99747.22
2023-03-11T13:03:20.758Z,99744.19
2023-03-11T13:06:21.835Z,99745.41
2023-03-11T13:08:54.724Z,99743.88
2023-03-11T13:11:33.345Z,99745.47
2023-03-11T13:14:30.643Z,99747.00
2023-03-11T13:17:18.136Z,99741.72
2023-03-11T13:19:49.982Z,99741.13
2023-03-11T13:22:42.731Z,99742.97
2023-03-11T13:25:27.326Z,99740.28
2023-03-11T13:28:03.998Z,99742.22
2023-03-11T13:30:38.896Z,99732.06
2023-03-11T13:33:36.656Z,99733.94
2023-03-11T13:36:18.908Z,99738.41
2023-03-11T13:39:13.842Z,99743.38
2023-03-11T13:41:44.590Z,99744.34
2023-03-11T13:44:19.662Z,99745.97
2023-03-11T13:46:50.468Z,99752.28
2023-03-11T13:49:41.455Z,99748.88
2023-03-11T13:52:46.824Z,99755.47
2023-03-11T13:55:28.694Z,99753.31
2023-03-11T13:57:56.859Z,99750.88
2023-03-11T14:00:30.797Z,99751.03
2023-03-11T14:03:03.549Z,99762.19
2023-03-11T14:05:35.975Z,99760.28
2023-03-11T14:08:18.871Z,99759.59
2023-03-11T14:11:02.979Z,99752.16
2023-03-11T14:13:38.284Z,99762.59
2023-03-11T14:16:14.592Z,99763.22
2023-03-11T14:18:43.385Z,99756.09
2023-03-11T14:21:14.593Z,99756.63
2023-03-11T14:23:47.286Z,99765.41
2023-03-11T14:26:21.046Z,99755.41
2023-03-11T14:28:54.096Z,99758.28
2023-03-11T14:31:34.196Z,99756.53
2023-03-11T14:34:06.708Z,99737.72
2023-03-11T14:36:52.311Z,99730.16
2023-03-11T14:39:36.319Z,99746.00
2023-03-11T14:42:26.085Z,99733.97
2023-03-11T14:45:11.935Z,99738.75
2023-03-11T14:47:41.647Z,99744.47
2023-03-11T14:50:16.559Z,99743.59
2023-03-11T14:52:48.597Z,99746.56
2023-03-11T14:55:27.677Z,99764.91
2023-03-11T14:58:00.345Z,99761.75
2023-03-11T15:00:41.698Z,99749.53
2023-03-11T15:03:23.162Z,99756.50
2023-03-11T15:05:57.932Z,99752.34
2023-03-11T15:08:28.341Z,99753.00
2023-03-11T15:11:05.778Z,99743.59
2023-03-11T15:13:33.046Z,99745.25
2023-03-11T15:16:02.272Z,99743.16
2023-03-11T15:18:32.338Z,99741.41
2023-03-11T15:21:06.124Z,99736.16
2023-03-11T15:23:34.869Z,99738.31
2023-03-11T15:26:01.747Z,99738.53
2023-03-11T15:28:30.890Z,99749.06
2023-03-11T15:31:21.981Z,99754.53
2023-03-11T15:33:51.480Z,99750.44
2023-03-11T15:36:50.210Z,99747.25
2023-03-11T15:39:26.056Z,99764.97
2023-03-11T15:42:01.870Z,99758.91
2023-03-11T15:44:31.984Z,99767.75
2023-03-11T15:47:01.278Z,99765.34
2023-03-11T15:49:29.559Z,99766.19
2023-03-11T15:52:00.021Z,99775.19
2023-03-11T15:54:27.094Z,99771.53
2023-03-11T15:56:55.137Z,99779.94
2023-03-11T15:59:22.204Z,99775.69
2023-03-11T16:01:48.563Z,99775.44
2023-03-11T16:04:17.340Z,99778.00
2023-03-11T16:06:47.965Z,99770.84
2023-03-11T16:09:16.817Z,99773.41
2023-03-11T16:11:44.331Z,99771.31
2023-03-11T16:14:17.310Z,99761.00
2023-03-11T16:16:44.802Z,99763.31
2023-03-11T16:19:12.115Z,99770.63
2023-03-11T16:21:42.944Z,99782.22
2023-03-11T16:24:16.672Z,99785.28
2023-03-11T16:26:43.071Z,99782.72
2023-03-11T16:29:19.042Z,99780.41
2023-03-11T16:31:46.743Z,99784.88
2023-03-11T16:34:13.237Z,99790.16
2023-03-11T16:36:39.678Z,99792.06
2023-03-11T16:39:06.321Z,99792.22
2023-03-11T16:41:44.358Z,99788.84
2023-03-11T16:44:11.406Z,99796.78
2023-03-11T16:46:37.963Z,99798.75
2023-03-11T16:49:05.156Z,99798.13
2023-03-11T16:51:31.939Z,99794.56
2023-03-11T16:53:58.343Z,99797.13
2023-03-11T16:56:24.947Z,99802.56
2023-03-11T16:58:51.501Z,99797.22
2023-03-11T17:01:19.113Z,99803.63
2023-03-11T17:03:48.543Z,99807.28
2023-03-11T17:06:16.237Z,99809.22
2023-03-11T17:08:46.067Z,99816.44
2023-03-11T17:11:24.271Z,99813.88
2023-03-11T17:13:50.936Z,99808.88
2023-03-11T17:16:17.430Z,99812.59
2023-03-11T17:18:43.862Z,99818.06
2023-03-11T17:21:13.089Z,99813.25
2023-03-11T17:23:39.526Z,99812.78
2023-03-11T17:26:11.506Z,99817.41
2023-03-11T17:28:39.920Z,99817.56
2023-03-11T17:31:11.648Z,99821.28
2023-03-11T17:33:38.070Z,99826.25
2023-03-11T17:36:06.525Z,99837.13
2023-03-11T17:38:33.672Z,99838.84
2023-03-11T17:41:00.182Z,99838.84
2023-03-11T17:43:26.579Z,99843.47
2023-03-11T17:45:53.755Z,99848.84
2023-03-11T17:48:21.199Z,99854.84
2023-03-11T17:50:47.607Z,99846.19
2023-03-11T17:53:14.001Z,99854.22
2023-03-11T17:55:40.618Z,99860.53
2023-03-11T17:58:07.521Z,99862.41
2023-03-11T18:00:34.040Z,99869.53
2023-03-11T18:03:00.446Z,99865.19
2023-03-11T18:05:26.811Z,99869.59
2023-03-11T18:07:53.189Z,99868.78
2023-03-11T18:10:19.699Z,99870.53
2023-03-11T18:12:46.757Z,99872.19
2023-03-11T18:15:19.313Z,99876.75
2023-03-11T18:17:47.001Z,99872.34
2023-03-11T18:20:14.709Z,99876.56
2023-03-11T18:22:46.214Z,99878.44
2023-03-11T18:25:13.797Z,99873.22
2023-03-11T18:27:40.264Z,99881.06
2023-03-11T18:30:08.114Z,99875.94
2023-03-11T18:32:34.639Z,99876.78
2023-03-11T18:35:01.213Z,99876.72
2023-03-11T18:37:27.637Z,99881.97
2023-03-11T18:39:54.106Z,99883.69
2023-03-11T18:42:20.510Z,99882.81
2023-03-11T18:44:46.983Z,99871.44
2023-03-11T18:47:13.395Z,99879.38
2023-03-11T18:49:40.419Z,99881.19
2023-03-11T18:52:06.862Z,99886.41
2023-03-11T18:54:33.295Z,99886.38
2023-03-11T18:56:59.731Z,99896.88
2023-03-11T18:59:27.545Z,99889.03
2023-03-11T19:01:54.130Z,99887.31
2023-03-11T19:04:20.599Z,99889.88
2023-03-11T19:06:47.430Z,99892.53
2023-03-11T19:09:14.107Z,99892.63
2023-03-11T19:11:40.452Z,99895.25
2023-03-11T19:14:06.918Z,99901.38
2023-03-11T19:16:33.320Z,99895.25
2023-03-11T19:19:00.327Z,99897.88
2023-03-11T19:21:26.997Z,99900.50
2023-03-11T19:23:55.283Z,99900.50
2023-03-11T19:26:33.757Z,99900.53
2023-03-11T19:29:08.810Z,99907.47
2023-03-11T19:31:35.367Z,99907.47
2023-03-11T19:34:01.840Z,99908.31
2023-03-11T19:36:28.316Z,99913.53
2023-03-11T19:38:54.696Z,99911.81
2023-03-11T19:41:22.996Z,99921.44
2023-03-11T19:43:49.503Z,99927.53
2023-03-11T19:46:18.898Z,99928.44
2023-03-11T19:48:45.326Z,99923.22
2023-03-11T19:51:14.428Z,99933.69
2023-03-11T19:53:41.594Z,99929.34
2023-03-11T19:56:09.144Z,99931.06
2023-03-11T19:58:36.047Z,99931.06
2023-03-11T20:01:02.616Z,99932.84
2023-03-11T20:03:29.772Z,99930.22
2023-03-11T20:05:57.921Z,99935.44
2023-03-11T20:08:25.672Z,99940.69
2023-03-11T20:10:53.471Z,99939.75
2023-03-11T20:13:21.550Z,99945.91
2023-03-11T20:15:48.127Z,99941.47
2023-03-11T20:18:14.559Z,99941.50
2023-03-11T20:20:43.254Z,99948.47
2023-03-11T20:23:10.382Z,99945.00
2023-03-11T20:25:41.326Z,99948.50
2023-03-11T20:28:08.081Z,99950.22
2023-03-11T20:30:36.751Z,99956.28
2023-03-11T20:33:03.203Z,99954.56
2023-03-11T20:35:29.673Z,99958.81
2023-03-11T20:37:56.144Z,99970.13
2023-03-11T20:40:22.627Z,99970.16
2023-03-11T20:42:49.095Z,99971.84
2023-03-11T20:45:21.504Z,99974.44
2023-03-11T20:47:49.192Z,99971.91
2023-03-11T20:50:16.306Z,99978.03
2023-03-11T20:52:42.806Z,99978.00
2023-03-11T20:55:10.250Z,99982.38
2023-03-11T20:57:38.077Z,99979.75
2023-03-11T21:00:11.410Z,99978.84
2023-03-11T21:02:40.184Z,99983.09
2023-03-11T21:05:08.378Z,99984.91
2023-03-11T21:07:35.329Z,99990.13
2023-03-11T21:10:03.779Z,99976.97
2023-03-11T21:12:31.415Z,99983.88
2023-03-11T21:14:58.052Z,99982.16
2023-03-11T21:17:24.793Z,99988.22
2023-03-11T21:19:54.167Z,99982.97
2023-03-11T21:22:20.764Z,99978.66
2023-03-11T21:24:54.436Z,99975.16
2023-03-11T21:27:27.744Z,99968.19
2023-03-11T21:29:58.368Z,99973.22
2023-03-11T21:32:27.223Z,99968.78
2023-03-11T21:34:59.022Z,99969.53
2023-03-11T21:37:26.743Z,99974.09
2023-03-11T21:39:53.735Z,99978.41
2023-03-11T21:42:20.873Z,99980.00
2023-03-11T21:44:47.433Z,99985.09
2023-03-11T21:47:14.001Z,99979.06
2023-03-11T21:49:40.485Z,99975.63
2023-03-11T21:52:07.028Z,99983.59
2023-03-11T21:54:33.470Z,99986.06
2023-03-11T21:56:59.987Z,99983.47
2023-03-11T21:59:26.676Z,99992.13
2023-03-11T22:01:53.383Z,99993.91
2023-03-11T22:04:20.103Z,99990.34
2023-03-11T22:06:46.573Z,99994.66
2023-03-11T22:09:13.131Z,99995.66
2023-03-11T22:11:39.672Z,100002.56
2023-03-11T22:14:06.200Z,100000.78
2023-03-11T22:16:32.888Z,99996.34
2023-03-11T22:18:59.341Z,99997.97
2023-03-11T22:21:25.818Z,99991.09
2023-03-11T22:23:52.334Z,99994.78
2023-03-11T22:26:18.755Z,99986.97
2023-03-11T22:28:45.176Z,99989.41
2023-03-11T22:31:13.901Z,99984.03
2023-03-11T22:33:40.500Z,99981.34
2023-03-11T22:36:09.154Z,99984.16
2023-03-11T22:38:36.847Z,99976.06
2023-03-11T22:41:07.661Z,99984.03
2023-03-11T22:43:34.968Z,99988.41
2023-03-11T22:46:02.645Z,100000.31
2023-03-11T22:48:29.179Z,99999.47
2023-03-11T22:50:58.779Z,99990.88
2023-03-11T22:53:25.200Z,99996.88
2023-03-11T22:55:52.766Z,99992.63
2023-03-11T22:58:19.679Z,99994.47
2023-03-11T23:00:46.649Z,99987.53
2023-03-11T23:03:13.540Z,99987.50
2023-03-11T23:05:43.431Z,99991.75
2023-03-11T23:08:12.076Z,99998.75
2023-03-11T23:10:45.698Z,100005.53
2023-03-11T23:13:12.882Z,100004.69
2023-03-11T23:15:44.285Z,100002.97
2023-03-11T23:18:11.684Z,99995.88
2023-03-11T23:20:39.987Z,99998.38
2023-03-11T23:23:07.295Z,99997.41
2023-03-11T23:25:34.864Z,99992.31
2023-03-11T23:28:02.933Z,99998.38
2023-03-11T23:30:29.463Z,99998.13
2023-03-11T23:32:57.179Z,99995.47
2023-03-11T23:35:23.706Z,99996.50
2023-03-11T23:37:50.923Z,99993.94
2023-03-11T23:40:17.547Z,99993.94
2023-03-11T23:42:43.982Z,99985.16
2023-03-11T23:45:10.917Z,99986.97
2023-03-11T23:47:37.346Z,99993.03
2023-03-11T23:50:04.049Z,99988.03
2023-03-11T23:52:30.445Z,99997.66
2023-03-11T23:54:56.944Z,99993.38
2023-03-11T23:57:23.402Z,99988.19
2023-03-11T23:59:49.871Z,99986.25
